Pelagia — PGRQ — position and weather

sailwx.info

Track history (hours):
 
Tides and Currents Weather Stations Pressure Air Temp Water Temp Dewpoint Dewpoint Depression Visibility Wind Speed Wind Dir Waves Ship Positions

Oceanographic research ship Pelagia (Netherlands)

Detailed information on ship capabilities available from University of Delaware's Ocean Information Center and ARCUS's ALIAS (Arctic Logistics Information and Support) project.

Last reported at 2017-Aug-20 15:30 UTC. Time now 2017-Aug-20 15:36 UTC.
Position N 34°26' W 014°27'.

Length 66 m; beam 13 m.

Type: Other ship. MMSI: 244925000.

Date/timePositionNaut miles runAvg speedWind from/ knotsBaromVisibWave heightAir tempDewpointWater temp
2017-Aug-20 15:30N 34°26' W 014°27'4 8.5
2017-Aug-20 14:59N 34°22' W 014°30'4 9.0
2017-Aug-20 14:30N 34°18' W 014°32'10 8.8
2017-Aug-20 13:18N 34°09' W 014°39'4 8.8
2017-Aug-20 12:52N 34°05' W 014°41'6 8.7
2017-Aug-20 12:09N 34°00' W 014°45'1 8.7
2017-Aug-20 12:00N 33°59' W 014°46'4 8.7
2017-Aug-20 11:29N 33°55' W 014°49'5 8.7
2017-Aug-20 10:56N 33°51' W 014°52'4 8.6
2017-Aug-20 10:30N 33°48' W 014°55'4 8.4
2017-Aug-20 10:00N 33°45' W 014°57'4 8.4
2017-Aug-20 09:30N 33°41' W 014°59'4 8.2
2017-Aug-20 09:00N 33°37' W 015°01'4 8.1
2017-Aug-20 08:30N 33°33' W 015°03'4 8.2
2017-Aug-20 08:00N 33°30' W 015°06'4 8.2
2017-Aug-20 07:30N 33°26' W 015°08'4 8.3
2017-Aug-20 07:00N 33°22' W 015°10'4 8.3
2017-Aug-20 06:30N 33°19' W 015°12'4 8.7
2017-Aug-20 06:00N 33°15' W 015°14'8 8.6
2017-Aug-20 05:06N 33°08' W 015°18'1 8.4
2017-Aug-20 05:00N 33°07' W 015°19'4 8.5
2017-Aug-20 04:30N 33°03' W 015°21'6 8.4
2017-Aug-20 03:49N 32°58' W 015°24'3 8.1
2017-Aug-20 03:30N 32°56' W 015°25'5 8.2
2017-Aug-20 02:54N 32°51' W 015°27'4 8.1
2017-Aug-20 02:28N 32°48' W 015°29'4 8.2
2017-Aug-20 01:58N 32°44' W 015°31'4 8.2
2017-Aug-20 01:29N 32°41' W 015°33'4 8.2
2017-Aug-20 01:00N 32°37' W 015°35'13 8.3
2017-Aug-19 23:29N 32°25' W 015°41'5 8.5
2017-Aug-19 22:56N 32°21' W 015°43'4 8.4
2017-Aug-19 22:26N 32°17' W 015°45'5 8.3
2017-Aug-19 21:49N 32°13' W 015°48'5 8.4
2017-Aug-19 21:15N 32°08' W 015°50'2 8.2
2017-Aug-19 21:00N 32°06' W 015°51'6 8.5
2017-Aug-19 20:14N 32°00' W 015°54'2 8.4
2017-Aug-19 20:00N 31°58' W 015°54'4 8.5
2017-Aug-19 19:30N 31°54' W 015°54'4 8.5
2017-Aug-19 19:00N 31°50' W 015°54'9 8.3
2017-Aug-19 17:57N 31°41' W 015°54'4 8.0
2017-Aug-19 17:30N 31°38' W 015°54'6 8.2
2017-Aug-19 16:43N 31°31' W 015°53'6 8.1
2017-Aug-19 15:56N 31°25' W 015°53'4 8.2
2017-Aug-19 15:27N 31°21' W 015°52'6 7.9
2017-Aug-19 14:40N 31°15' W 015°52'9 7.7
2017-Aug-19 13:30N 31°06' W 015°51'4 7.7
2017-Aug-19 13:00N 31°02' W 015°51'42 7.6
2017-Aug-19 07:27N 30°20' W 015°48'3 7.7
2017-Aug-19 07:00N 30°16' W 015°47'4 7.8
2017-Aug-19 06:29N 30°12' W 015°47'4 7.9
2017-Aug-19 06:00N 30°08' W 015°47'4 7.7
2017-Aug-19 05:30N 30°05' W 015°46'4 7.7
2017-Aug-19 05:00N 30°01' W 015°46'4 7.8
2017-Aug-19 04:30N 29°57' W 015°46'4 7.5
2017-Aug-19 04:00N 29°53' W 015°46'4 7.8
2017-Aug-19 03:30N 29°49' W 015°45'4 7.8
2017-Aug-19 03:00N 29°45' W 015°45'4 7.7
2017-Aug-19 02:30N 29°42' W 015°45'4 7.9
2017-Aug-19 02:00N 29°38' W 015°44'4 7.7
2017-Aug-19 01:29N 29°34' W 015°44'4 7.6
2017-Aug-19 01:00N 29°30' W 015°43'4 7.5
2017-Aug-19 00:30N 29°26' W 015°43'4 7.6
2017-Aug-19 00:00N 29°22' W 015°42'4 7.7
2017-Aug-18 23:30N 29°19' W 015°42'5 7.5
2017-Aug-18 22:51N 29°14' W 015°41'3 7.9
2017-Aug-18 22:29N 29°11' W 015°41'4 7.6
2017-Aug-18 22:00N 29°07' W 015°41'4 7.6
2017-Aug-18 21:30N 29°03' W 015°40'4 7.6
2017-Aug-18 21:00N 28°60' W 015°40'4 8.0
2017-Aug-18 20:30N 28°56' W 015°40'4 8.2
2017-Aug-18 20:00N 28°51' W 015°40'4 8.4
2017-Aug-18 19:30N 28°47' W 015°39'4 8.3
2017-Aug-18 19:00N 28°43' W 015°39'4 8.4
2017-Aug-18 18:30N 28°39' W 015°39'4 7.6
2017-Aug-18 18:00N 28°35' W 015°40'4 8.0
2017-Aug-18 17:30N 28°32' W 015°43'4 8.1
2017-Aug-18 17:00N 28°29' W 015°46'4 8.1
2017-Aug-18 16:30N 28°26' W 015°49'4 7.8
2017-Aug-18 16:00N 28°23' W 015°51'4 7.6
2017-Aug-18 15:29N 28°20' W 015°54'4 7.4
2017-Aug-18 14:57N 28°17' W 015°57'9 7.8
2017-Aug-18 13:50N 28°21' W 016°06'4 9.6
2017-Aug-18 13:26N 28°24' W 016°09'4 9.8
2017-Aug-18 13:00N 28°27' W 016°12'3 1.3
2017-Aug-18 11:03N 28°29' W 016°13'0 0.0
2017-Aug-18 10:48N 28°29' W 016°13'0 0.0
2017-Aug-17 22:06N 28°29' W 016°13'0 0.0
2017-Aug-17 21:57N 28°29' W 016°13'0 0.0
2017-Aug-17 21:27N 28°29' W 016°13'0 0.0
2017-Aug-17 20:57N 28°29' W 016°13'0 0.0
2017-Aug-17 20:27N 28°29' W 016°13'0 0.0
2017-Aug-17 19:57N 28°29' W 016°13'0 0.0
2017-Aug-17 19:27N 28°29' W 016°13'0 0.0
2017-Aug-17 18:57N 28°29' W 016°13'0 0.0
2017-Aug-17 18:30N 28°29' W 016°13'0 0.0
2017-Aug-17 14:02N 28°29' W 016°13'0 0.1
2017-Aug-17 13:57N 28°29' W 016°13'1 3.0
2017-Aug-17 13:30N 28°28' W 016°13'1 2.7
2017-Aug-17 13:00N 28°27' W 016°12'0 0.9
2017-Aug-17 12:29N 28°27' W 016°11'0 0.8
2017-Aug-17 12:00N 28°27' W 016°11'3 6.0
2017-Aug-17 11:30N 28°27' W 016°08'3 6.1
2017-Aug-17 11:00N 28°26' W 016°04'3 5.9
2017-Aug-17 10:30N 28°25' W 016°01'9 6.1
2017-Aug-17 08:58N 28°31' W 015°52'4 6.5
2017-Aug-17 08:25N 28°34' W 015°50'5 7.0
2017-Aug-17 07:40N 28°37' W 015°46'2 7.2
2017-Aug-17 07:27N 28°39' W 015°45'8 7.6
2017-Aug-17 06:22N 28°45' W 015°38'5 7.9
2017-Aug-17 05:48N 28°48' W 015°35'5 8.1
2017-Aug-17 05:11N 28°52' W 015°31'15 7.9
2017-Aug-17 03:15N 29°03' W 015°19'3 7.9
2017-Aug-17 02:51N 29°06' W 015°17'3 8.0
2017-Aug-17 02:29N 29°08' W 015°15'4 8.1
2017-Aug-17 01:59N 29°11' W 015°11'4 8.3
2017-Aug-17 01:30N 29°13' W 015°08'5 8.2
2017-Aug-17 00:54N 29°17' W 015°04'4 8.4
2017-Aug-17 00:24N 29°20' W 015°01'5 8.5
2017-Aug-16 23:50N 29°24' W 014°57'3 8.3
2017-Aug-16 23:30N 29°26' W 014°55'4 8.2
2017-Aug-16 23:00N 29°29' W 014°52'4 8.0
2017-Aug-16 22:30N 29°32' W 014°49'4 7.8
2017-Aug-16 22:00N 29°35' W 014°47'4 7.6
2017-Aug-16 21:30N 29°38' W 014°44'4 7.8
2017-Aug-16 21:00N 29°41' W 014°41'4 8.3
2017-Aug-16 20:30N 29°44' W 014°37'2 3.1
2017-Aug-16 19:58N 29°45' W 014°36'0 0.0
2017-Aug-16 14:38N 29°45' W 014°36'0 0.1
2017-Aug-16 14:30N 29°45' W 014°36'0 0.0
2017-Aug-16 14:00N 29°45' W 014°36'0 0.0
2017-Aug-16 13:29N 29°45' W 014°36'0 0.1
2017-Aug-16 13:00N 29°45' W 014°36'0 0.0
2017-Aug-16 12:30N 29°45' W 014°36'0 0.0
2017-Aug-16 11:57N 29°45' W 014°36'0 0.0
2017-Aug-16 11:30N 29°45' W 014°36'0 0.0
2017-Aug-16 10:45N 29°45' W 014°36'0 0.1
2017-Aug-16 10:30N 29°45' W 014°36'0 0.0
2017-Aug-16 10:00N 29°45' W 014°36'0 0.0
2017-Aug-16 09:30N 29°45' W 014°36'0 0.0
2017-Aug-16 09:00N 29°45' W 014°36'0 0.0
2017-Aug-16 08:30N 29°45' W 014°36'0 0.1
2017-Aug-16 08:00N 29°45' W 014°36'0 0.0
2017-Aug-16 07:30N 29°45' W 014°36'0 0.0
2017-Aug-16 07:00N 29°45' W 014°36'1 1.5
2017-Aug-16 06:30N 29°44' W 014°37'2 4.3
2017-Aug-16 06:00N 29°43' W 014°38'2 3.2
2017-Aug-16 05:30N 29°42' W 014°39'2 3.2
2017-Aug-16 05:00N 29°40' W 014°40'1 2.4
2017-Aug-16 04:26N 29°39' W 014°41'3 2.1
2017-Aug-16 03:01N 29°36' W 014°43'0 2.0
2017-Aug-16 02:55N 29°36' W 014°43'0 1.1
2017-Aug-16 02:28N 29°36' W 014°43'1 1.4
2017-Aug-16 02:00N 29°37' W 014°43'2 1.8
2017-Aug-16 01:07N 29°38' W 014°42'1 1.6
2017-Aug-16 00:24N 29°39' W 014°42'1 1.4
2017-Aug-16 00:00N 29°40' W 014°41'1 1.2
2017-Aug-15 23:20N 29°40' W 014°41'0 1.0
2017-Aug-15 22:55N 29°41' W 014°41'1 1.2
2017-Aug-15 21:42N 29°42' W 014°40'0 1.1
2017-Aug-15 21:29N 29°42' W 014°40'1 1.1
2017-Aug-15 21:00N 29°42' W 014°39'1 1.2
2017-Aug-15 20:21N 29°43' W 014°39'1 1.2
2017-Aug-15 19:44N 29°44' W 014°38'1 1.1
2017-Aug-15 19:12N 29°44' W 014°38'0 0.9
2017-Aug-15 18:55N 29°44' W 014°38'1 1.0
2017-Aug-15 18:08N 29°45' W 014°37'0 1.0
2017-Aug-15 17:47N 29°45' W 014°37'0 0.9
2017-Aug-15 17:30N 29°45' W 014°36'1 0.9
2017-Aug-15 16:47N 29°46' W 014°36'0 0.4
2017-Aug-15 16:27N 29°46' W 014°36'1 0.3
2017-Aug-15 14:53N 29°46' W 014°35'0 1.2
2017-Aug-15 14:30N 29°46' W 014°36'1 1.2
2017-Aug-15 14:00N 29°45' W 014°36'0 0.2
2017-Aug-15 13:30N 29°45' W 014°36'0 0.0
2017-Aug-15 12:59N 29°45' W 014°36'0 0.0
2017-Aug-15 12:30N 29°45' W 014°36'0 0.0
2017-Aug-15 12:00N 29°45' W 014°36'0 0.0
2017-Aug-15 11:17N 29°45' W 014°36'0 0.0
2017-Aug-15 10:50N 29°45' W 014°36'0 0.0
2017-Aug-15 10:14N 29°45' W 014°36'0 0.1
2017-Aug-15 10:00N 29°45' W 014°36'0 0.0
2017-Aug-15 09:27N 29°45' W 014°36'0 0.0
2017-Aug-15 08:57N 29°45' W 014°36'0 0.0
2017-Aug-15 08:14N 29°45' W 014°36'0 0.0
2017-Aug-15 08:00N 29°45' W 014°36'0 0.0
2017-Aug-15 07:30N 29°45' W 014°36'0 0.0
2017-Aug-15 06:56N 29°45' W 014°36'0 0.0
2017-Aug-15 06:30N 29°45' W 014°36'0 0.0
2017-Aug-15 05:58N 29°45' W 014°36'0 0.0
2017-Aug-15 05:27N 29°45' W 014°36'0 0.4
2017-Aug-15 05:00N 29°45' W 014°36'1 1.4
2017-Aug-15 04:30N 29°45' W 014°36'2 3.0
2017-Aug-15 04:00N 29°47' W 014°35'1 2.9
2017-Aug-15 03:30N 29°48' W 014°35'2 3.1
2017-Aug-15 02:44N 29°51' W 014°34'1 3.1
2017-Aug-15 02:27N 29°51' W 014°34'6 3.1
2017-Aug-15 00:23N 29°58' W 014°32'5 3.1
2017-Aug-14 22:56N 30°02' W 014°31'2 5.1
2017-Aug-14 22:30N 30°04' W 014°30'3 5.2
2017-Aug-14 22:00N 30°07' W 014°29'8 5.2
2017-Aug-14 20:23N 30°14' W 014°25'2 5.3
2017-Aug-14 20:00N 30°16' W 014°25'5 5.3
2017-Aug-14 19:07N 30°21' W 014°22'0 1.3
2017-Aug-14 19:00N 30°21' W 014°22'3 5.3
2017-Aug-14 18:29N 30°23' W 014°21'6 5.1
2017-Aug-14 17:18N 30°29' W 014°19'10 4.7
2017-Aug-14 15:08N 30°39' W 014°16'0 1.4
2017-Aug-14 14:58N 30°39' W 014°15'1 1.7
2017-Aug-14 14:29N 30°40' W 014°15'0 0.1
2017-Aug-14 14:00N 30°40' W 014°15'0 0.0
2017-Aug-14 13:30N 30°40' W 014°15'0 0.0
2017-Aug-14 12:55N 30°40' W 014°15'0 0.0
2017-Aug-14 12:15N 30°40' W 014°15'0 0.0
2017-Aug-14 12:00N 30°40' W 014°15'0 0.0
2017-Aug-14 11:19N 30°40' W 014°15'0 0.0
2017-Aug-14 11:00N 30°40' W 014°15'0 0.0
2017-Aug-14 10:12N 30°40' W 014°15'0 0.1
2017-Aug-14 10:00N 30°40' W 014°15'0 0.0
2017-Aug-14 09:30N 30°40' W 014°15'0 0.0
2017-Aug-14 09:00N 30°40' W 014°15'0 0.0
2017-Aug-14 08:30N 30°40' W 014°15'0 0.0
2017-Aug-14 07:55N 30°40' W 014°15'0 0.0
2017-Aug-14 07:26N 30°40' W 014°15'0 0.0
2017-Aug-14 07:00N 30°40' W 014°15'0 0.0
2017-Aug-14 06:24N 30°40' W 014°15'0 0.0
2017-Aug-14 06:00N 30°40' W 014°15'0 0.0
2017-Aug-14 05:30N 30°40' W 014°15'0 0.2
2017-Aug-14 05:00N 30°40' W 014°15'7 8.0
2017-Aug-14 04:10N 30°45' W 014°11'1 9.2
2017-Aug-14 04:00N 30°47' W 014°10'5 9.1
2017-Aug-14 03:30N 30°51' W 014°08'8 9.2
2017-Aug-14 02:41N 30°57' W 014°03'2 9.3
2017-Aug-14 02:30N 30°58' W 014°02'10 9.4
2017-Aug-14 01:25N 31°07' W 013°55'4 9.4
2017-Aug-14 01:00N 31°10' W 013°53'5 9.5
2017-Aug-14 00:30N 31°14' W 013°50'5 9.5
2017-Aug-14 00:00N 31°18' W 013°47'5 9.7
2017-Aug-13 23:29N 31°22' W 013°43'14 9.7
2017-Aug-13 22:04N 31°33' W 013°35'1 9.7
2017-Aug-13 22:00N 31°34' W 013°34'6 9.9
2017-Aug-13 21:25N 31°39' W 013°31'5 9.6
2017-Aug-13 20:54N 31°43' W 013°27'4 9.8
2017-Aug-13 20:30N 31°46' W 013°25'6 9.7
2017-Aug-13 19:54N 31°51' W 013°21'4 9.8
2017-Aug-13 19:28N 31°55' W 013°18'7 9.8
2017-Aug-13 18:43N 32°01' W 013°14'2 9.6
2017-Aug-13 18:30N 32°03' W 013°12'5 9.5
2017-Aug-13 17:59N 32°07' W 013°09'5 9.5
2017-Aug-13 17:28N 32°11' W 013°06'4 9.1
2017-Aug-13 17:00N 32°14' W 013°03'0 0.2
2017-Aug-13 16:30N 32°14' W 013°03'0 0.0
2017-Aug-13 15:35N 32°14' W 013°03'0 0.0
2017-Aug-13 15:29N 32°14' W 013°03'0 0.0
2017-Aug-13 14:52N 32°14' W 013°03'0 0.0
2017-Aug-13 14:26N 32°14' W 013°03'0 0.0
2017-Aug-13 13:56N 32°14' W 013°03'0 0.0
2017-Aug-13 13:25N 32°14' W 013°03'0 0.0
2017-Aug-13 12:19N 32°14' W 013°03'0 0.0
2017-Aug-13 12:00N 32°14' W 013°03'0 0.0
2017-Aug-13 11:30N 32°14' W 013°03'0 0.0
2017-Aug-13 11:00N 32°14' W 013°03'0 0.0
2017-Aug-13 10:30N 32°14' W 013°03'0 0.0
2017-Aug-13 09:59N 32°14' W 013°03'0 0.0
2017-Aug-13 09:30N 32°14' W 013°03'0 0.0
2017-Aug-13 09:00N 32°14' W 013°03'0 0.0
2017-Aug-13 08:30N 32°14' W 013°03'0 0.0
2017-Aug-13 08:00N 32°14' W 013°03'0 0.0
2017-Aug-13 07:30N 32°14' W 013°03'0 0.0
2017-Aug-13 07:00N 32°14' W 013°03'0 0.0
2017-Aug-13 06:28N 32°14' W 013°03'0 0.0
2017-Aug-13 05:48N 32°14' W 013°03'0 0.0
2017-Aug-13 05:29N 32°14' W 013°03'23 7.6
2017-Aug-13 02:24N 32°32' W 013°22'410.2
2017-Aug-13 02:00N 32°35' W 013°25'1110.1
2017-Aug-13 00:53N 32°43' W 013°33'1110.3
2017-Aug-12 23:48N 32°52' W 013°42'610.3
2017-Aug-12 23:15N 32°56' W 013°46'310.2
2017-Aug-12 23:00N 32°58' W 013°48'510.3
2017-Aug-12 22:30N 33°02' W 013°52'2010.3
2017-Aug-12 20:33N 33°19' W 014°06'110.6
2017-Aug-12 20:30N 33°19' W 014°07'710.4
2017-Aug-12 19:48N 33°25' W 014°12'610.3
2017-Aug-12 19:11N 33°30' W 014°16'210.1
2017-Aug-12 19:00N 33°32' W 014°17'6 9.6
2017-Aug-12 18:23N 33°37' W 014°21'3 7.3
2017-Aug-12 17:55N 33°39' W 014°24'0 0.1
2017-Aug-12 17:30N 33°39' W 014°24'0 0.0
2017-Aug-12 17:00N 33°39' W 014°24'0 0.0
2017-Aug-12 16:30N 33°39' W 014°24'3 5.8
2017-Aug-12 16:00N 33°37' W 014°25'3 5.4
2017-Aug-12 15:30N 33°35' W 014°27'0 0.0
2017-Aug-12 15:00N 33°35' W 014°27'0 0.0
2017-Aug-12 13:49N 33°35' W 014°27'0 0.0
2017-Aug-12 13:30N 33°35' W 014°27'0 0.0
2017-Aug-12 12:59N 33°35' W 014°27'0 0.0
2017-Aug-12 12:30N 33°35' W 014°27'0 0.0
2017-Aug-12 11:59N 33°35' W 014°27'0 0.0
2017-Aug-12 10:38N 33°34' W 014°27'0 0.1
2017-Aug-12 10:28N 33°34' W 014°27'0 0.0
2017-Aug-12 10:00N 33°34' W 014°27'0 0.0
2017-Aug-12 09:30N 33°35' W 014°27'0 0.0
2017-Aug-12 09:00N 33°35' W 014°27'2 2.7
2017-Aug-12 08:25N 33°36' W 014°28'1 1.6
2017-Aug-12 08:00N 33°35' W 014°27'1 1.4
2017-Aug-12 07:24N 33°35' W 014°27'0 0.1
2017-Aug-12 05:51N 33°34' W 014°27'2 1.3
2017-Aug-12 04:37N 33°36' W 014°28'1 5.6
2017-Aug-12 04:30N 33°37' W 014°28'3 5.7
2017-Aug-12 03:58N 33°40' W 014°27'3 5.6
2017-Aug-12 03:21N 33°43' W 014°27'2 5.4
2017-Aug-12 03:00N 33°45' W 014°27'2 4.8
2017-Aug-12 02:30N 33°47' W 014°27'6 4.6
2017-Aug-12 01:12N 33°53' W 014°26'3 4.9
2017-Aug-12 00:41N 33°56' W 014°26'1 4.7
2017-Aug-12 00:24N 33°57' W 014°26'2 4.9
2017-Aug-11 23:59N 33°59' W 014°26'2 5.0
2017-Aug-11 23:29N 34°02' W 014°26'2 5.0
2017-Aug-11 23:00N 34°04' W 014°25'3 5.4
2017-Aug-11 22:30N 34°07' W 014°25'3 5.6
2017-Aug-11 22:00N 34°10' W 014°24'3 5.6
2017-Aug-11 21:30N 34°12' W 014°24'3 5.7
2017-Aug-11 20:54N 34°16' W 014°24'3 5.8
2017-Aug-11 20:26N 34°18' W 014°23'3 5.8
2017-Aug-11 19:55N 34°21' W 014°23'23 5.9
2017-Aug-11 16:01N 34°44' W 014°23'0 6.9
2017-Aug-11 16:00N 34°45' W 014°23'1 1.6
2017-Aug-11 15:18N 34°46' W 014°23'6 3.7
2017-Aug-11 13:34N 34°44' W 014°16'0 1.1
2017-Aug-11 13:27N 34°44' W 014°16'1 0.8
2017-Aug-11 12:27N 34°43' W 014°16'0 0.0
2017-Aug-11 11:58N 34°43' W 014°16'0 0.0
2017-Aug-11 10:54N 34°43' W 014°16'0 0.0
2017-Aug-11 10:28N 34°43' W 014°16'0 0.0
2017-Aug-11 10:00N 34°43' W 014°16'0 0.0
2017-Aug-11 09:30N 34°43' W 014°16'0 0.0
2017-Aug-11 08:59N 34°43' W 014°16'0 0.0
2017-Aug-11 08:26N 34°43' W 014°16'0 0.0
2017-Aug-11 07:51N 34°43' W 014°16'0 0.0
2017-Aug-11 05:29N 34°43' W 014°16'0 0.0
2017-Aug-11 04:54N 34°43' W 014°16'2 3.8
2017-Aug-11 04:30N 34°45' W 014°16'12 4.7
2017-Aug-11 01:52N 34°57' W 014°16'2 4.1
2017-Aug-11 01:28N 34°59' W 014°16'2 4.2
2017-Aug-11 01:00N 35°01' W 014°15'4 4.2
2017-Aug-11 00:10N 35°04' W 014°15'1 4.3
2017-Aug-11 00:00N 35°05' W 014°15'4 4.3
2017-Aug-10 23:01N 35°09' W 014°14'0 4.7
2017-Aug-10 23:00N 35°09' W 014°14'3 5.9
2017-Aug-10 22:30N 35°12' W 014°13'  
Track history (hours):
 
Tides and Currents Weather Stations Pressure Air Temp Water Temp Dewpoint Dewpoint Depression Visibility Wind Speed Wind Dir Waves Ship Positions

Oceanographic research ship Pelagia (Netherlands)

Detailed information on ship capabilities available from University of Delaware's Ocean Information Center and ARCUS's ALIAS (Arctic Logistics Information and Support) project.

Last reported at 2017-Aug-20 15:30 UTC. Time now 2017-Aug-20 15:36 UTC.
Position N 34°26' W 014°27'.

Length 66 m; beam 13 m.

Type: Other ship. MMSI: 244925000.

Date/timePositionNaut miles runAvg speedWind from/ knotsBaromVisibWave heightAir tempDewpointWater temp
2017-Aug-20 15:30N 34°26' W 014°27'4 8.5
2017-Aug-20 14:59N 34°22' W 014°30'4 9.0
2017-Aug-20 14:30N 34°18' W 014°32'10 8.8
2017-Aug-20 13:18N 34°09' W 014°39'4 8.8
2017-Aug-20 12:52N 34°05' W 014°41'6 8.7
2017-Aug-20 12:09N 34°00' W 014°45'1 8.7
2017-Aug-20 12:00N 33°59' W 014°46'4 8.7
2017-Aug-20 11:29N 33°55' W 014°49'5 8.7
2017-Aug-20 10:56N 33°51' W 014°52'4 8.6
2017-Aug-20 10:30N 33°48' W 014°55'4 8.4
2017-Aug-20 10:00N 33°45' W 014°57'4 8.4
2017-Aug-20 09:30N 33°41' W 014°59'4 8.2
2017-Aug-20 09:00N 33°37' W 015°01'4 8.1
2017-Aug-20 08:30N 33°33' W 015°03'4 8.2
2017-Aug-20 08:00N 33°30' W 015°06'4 8.2
2017-Aug-20 07:30N 33°26' W 015°08'4 8.3
2017-Aug-20 07:00N 33°22' W 015°10'4 8.3
2017-Aug-20 06:30N 33°19' W 015°12'4 8.7
2017-Aug-20 06:00N 33°15' W 015°14'8 8.6
2017-Aug-20 05:06N 33°08' W 015°18'1 8.4
2017-Aug-20 05:00N 33°07' W 015°19'4 8.5
2017-Aug-20 04:30N 33°03' W 015°21'6 8.4
2017-Aug-20 03:49N 32°58' W 015°24'3 8.1
2017-Aug-20 03:30N 32°56' W 015°25'5 8.2
2017-Aug-20 02:54N 32°51' W 015°27'4 8.1
2017-Aug-20 02:28N 32°48' W 015°29'4 8.2
2017-Aug-20 01:58N 32°44' W 015°31'4 8.2
2017-Aug-20 01:29N 32°41' W 015°33'4 8.2
2017-Aug-20 01:00N 32°37' W 015°35'13 8.3
2017-Aug-19 23:29N 32°25' W 015°41'5 8.5
2017-Aug-19 22:56N 32°21' W 015°43'4 8.4
2017-Aug-19 22:26N 32°17' W 015°45'5 8.3
2017-Aug-19 21:49N 32°13' W 015°48'5 8.4
2017-Aug-19 21:15N 32°08' W 015°50'2 8.2
2017-Aug-19 21:00N 32°06' W 015°51'6 8.5
2017-Aug-19 20:14N 32°00' W 015°54'2 8.4
2017-Aug-19 20:00N 31°58' W 015°54'4 8.5
2017-Aug-19 19:30N 31°54' W 015°54'4 8.5
2017-Aug-19 19:00N 31°50' W 015°54'9 8.3
2017-Aug-19 17:57N 31°41' W 015°54'4 8.0
2017-Aug-19 17:30N 31°38' W 015°54'6 8.2
2017-Aug-19 16:43N 31°31' W 015°53'6 8.1
2017-Aug-19 15:56N 31°25' W 015°53'4 8.2
2017-Aug-19 15:27N 31°21' W 015°52'6 7.9
2017-Aug-19 14:40N 31°15' W 015°52'9 7.7
2017-Aug-19 13:30N 31°06' W 015°51'4 7.7
2017-Aug-19 13:00N 31°02' W 015°51'42 7.6
2017-Aug-19 07:27N 30°20' W 015°48'3 7.7
2017-Aug-19 07:00N 30°16' W 015°47'4 7.8
2017-Aug-19 06:29N 30°12' W 015°47'4 7.9
2017-Aug-19 06:00N 30°08' W 015°47'4 7.7
2017-Aug-19 05:30N 30°05' W 015°46'4 7.7
2017-Aug-19 05:00N 30°01' W 015°46'4 7.8
2017-Aug-19 04:30N 29°57' W 015°46'4 7.5
2017-Aug-19 04:00N 29°53' W 015°46'4 7.8
2017-Aug-19 03:30N 29°49' W 015°45'4 7.8
2017-Aug-19 03:00N 29°45' W 015°45'4 7.7
2017-Aug-19 02:30N 29°42' W 015°45'4 7.9
2017-Aug-19 02:00N 29°38' W 015°44'4 7.7
2017-Aug-19 01:29N 29°34' W 015°44'4 7.6
2017-Aug-19 01:00N 29°30' W 015°43'4 7.5
2017-Aug-19 00:30N 29°26' W 015°43'4 7.6
2017-Aug-19 00:00N 29°22' W 015°42'4 7.7
2017-Aug-18 23:30N 29°19' W 015°42'5 7.5
2017-Aug-18 22:51N 29°14' W 015°41'3 7.9
2017-Aug-18 22:29N 29°11' W 015°41'4 7.6
2017-Aug-18 22:00N 29°07' W 015°41'4 7.6
2017-Aug-18 21:30N 29°03' W 015°40'4 7.6
2017-Aug-18 21:00N 28°60' W 015°40'4 8.0
2017-Aug-18 20:30N 28°56' W 015°40'4 8.2
2017-Aug-18 20:00N 28°51' W 015°40'4 8.4
2017-Aug-18 19:30N 28°47' W 015°39'4 8.3
2017-Aug-18 19:00N 28°43' W 015°39'4 8.4
2017-Aug-18 18:30N 28°39' W 015°39'4 7.6
2017-Aug-18 18:00N 28°35' W 015°40'4 8.0
2017-Aug-18 17:30N 28°32' W 015°43'4 8.1
2017-Aug-18 17:00N 28°29' W 015°46'4 8.1
2017-Aug-18 16:30N 28°26' W 015°49'4 7.8
2017-Aug-18 16:00N 28°23' W 015°51'4 7.6
2017-Aug-18 15:29N 28°20' W 015°54'4 7.4
2017-Aug-18 14:57N 28°17' W 015°57'9 7.8
2017-Aug-18 13:50N 28°21' W 016°06'4 9.6
2017-Aug-18 13:26N 28°24' W 016°09'4 9.8
2017-Aug-18 13:00N 28°27' W 016°12'3 1.3
2017-Aug-18 11:03N 28°29' W 016°13'0 0.0
2017-Aug-18 10:48N 28°29' W 016°13'0 0.0
2017-Aug-17 22:06N 28°29' W 016°13'0 0.0
2017-Aug-17 21:57N 28°29' W 016°13'0 0.0
2017-Aug-17 21:27N 28°29' W 016°13'0 0.0
2017-Aug-17 20:57N 28°29' W 016°13'0 0.0
2017-Aug-17 20:27N 28°29' W 016°13'0 0.0
2017-Aug-17 19:57N 28°29' W 016°13'0 0.0
2017-Aug-17 19:27N 28°29' W 016°13'0 0.0
2017-Aug-17 18:57N 28°29' W 016°13'0 0.0
2017-Aug-17 18:30N 28°29' W 016°13'0 0.0
2017-Aug-17 14:02N 28°29' W 016°13'0 0.1
2017-Aug-17 13:57N 28°29' W 016°13'1 3.0
2017-Aug-17 13:30N 28°28' W 016°13'1 2.7
2017-Aug-17 13:00N 28°27' W 016°12'0 0.9
2017-Aug-17 12:29N 28°27' W 016°11'0 0.8
2017-Aug-17 12:00N 28°27' W 016°11'3 6.0
2017-Aug-17 11:30N 28°27' W 016°08'3 6.1
2017-Aug-17 11:00N 28°26' W 016°04'3 5.9
2017-Aug-17 10:30N 28°25' W 016°01'9 6.1
2017-Aug-17 08:58N 28°31' W 015°52'4 6.5
2017-Aug-17 08:25N 28°34' W 015°50'5 7.0
2017-Aug-17 07:40N 28°37' W 015°46'2 7.2
2017-Aug-17 07:27N 28°39' W 015°45'8 7.6
2017-Aug-17 06:22N 28°45' W 015°38'5 7.9
2017-Aug-17 05:48N 28°48' W 015°35'5 8.1
2017-Aug-17 05:11N 28°52' W 015°31'15 7.9
2017-Aug-17 03:15N 29°03' W 015°19'3 7.9
2017-Aug-17 02:51N 29°06' W 015°17'3 8.0
2017-Aug-17 02:29N 29°08' W 015°15'4 8.1
2017-Aug-17 01:59N 29°11' W 015°11'4 8.3
2017-Aug-17 01:30N 29°13' W 015°08'5 8.2
2017-Aug-17 00:54N 29°17' W 015°04'4 8.4
2017-Aug-17 00:24N 29°20' W 015°01'5 8.5
2017-Aug-16 23:50N 29°24' W 014°57'3 8.3
2017-Aug-16 23:30N 29°26' W 014°55'4 8.2
2017-Aug-16 23:00N 29°29' W 014°52'4 8.0
2017-Aug-16 22:30N 29°32' W 014°49'4 7.8
2017-Aug-16 22:00N 29°35' W 014°47'4 7.6
2017-Aug-16 21:30N 29°38' W 014°44'4 7.8
2017-Aug-16 21:00N 29°41' W 014°41'4 8.3
2017-Aug-16 20:30N 29°44' W 014°37'2 3.1
2017-Aug-16 19:58N 29°45' W 014°36'0 0.0
2017-Aug-16 14:38N 29°45' W 014°36'0 0.1
2017-Aug-16 14:30N 29°45' W 014°36'0 0.0
2017-Aug-16 14:00N 29°45' W 014°36'0 0.0
2017-Aug-16 13:29N 29°45' W 014°36'0 0.1
2017-Aug-16 13:00N 29°45' W 014°36'0 0.0
2017-Aug-16 12:30N 29°45' W 014°36'0 0.0
2017-Aug-16 11:57N 29°45' W 014°36'0 0.0
2017-Aug-16 11:30N 29°45' W 014°36'0 0.0
2017-Aug-16 10:45N 29°45' W 014°36'0 0.1
2017-Aug-16 10:30N 29°45' W 014°36'0 0.0
2017-Aug-16 10:00N 29°45' W 014°36'0 0.0
2017-Aug-16 09:30N 29°45' W 014°36'0 0.0
2017-Aug-16 09:00N 29°45' W 014°36'0 0.0
2017-Aug-16 08:30N 29°45' W 014°36'0 0.1
2017-Aug-16 08:00N 29°45' W 014°36'0 0.0
2017-Aug-16 07:30N 29°45' W 014°36'0 0.0
2017-Aug-16 07:00N 29°45' W 014°36'1 1.5
2017-Aug-16 06:30N 29°44' W 014°37'2 4.3
2017-Aug-16 06:00N 29°43' W 014°38'2 3.2
2017-Aug-16 05:30N 29°42' W 014°39'2 3.2
2017-Aug-16 05:00N 29°40' W 014°40'1 2.4
2017-Aug-16 04:26N 29°39' W 014°41'3 2.1
2017-Aug-16 03:01N 29°36' W 014°43'0 2.0
2017-Aug-16 02:55N 29°36' W 014°43'0 1.1
2017-Aug-16 02:28N 29°36' W 014°43'1 1.4
2017-Aug-16 02:00N 29°37' W 014°43'2 1.8
2017-Aug-16 01:07N 29°38' W 014°42'1 1.6
2017-Aug-16 00:24N 29°39' W 014°42'1 1.4
2017-Aug-16 00:00N 29°40' W 014°41'1 1.2
2017-Aug-15 23:20N 29°40' W 014°41'0 1.0
2017-Aug-15 22:55N 29°41' W 014°41'1 1.2
2017-Aug-15 21:42N 29°42' W 014°40'0 1.1
2017-Aug-15 21:29N 29°42' W 014°40'1 1.1
2017-Aug-15 21:00N 29°42' W 014°39'1 1.2
2017-Aug-15 20:21N 29°43' W 014°39'1 1.2
2017-Aug-15 19:44N 29°44' W 014°38'1 1.1
2017-Aug-15 19:12N 29°44' W 014°38'0 0.9
2017-Aug-15 18:55N 29°44' W 014°38'1 1.0
2017-Aug-15 18:08N 29°45' W 014°37'0 1.0
2017-Aug-15 17:47N 29°45' W 014°37'0 0.9
2017-Aug-15 17:30N 29°45' W 014°36'1 0.9
2017-Aug-15 16:47N 29°46' W 014°36'0 0.4
2017-Aug-15 16:27N 29°46' W 014°36'1 0.3
2017-Aug-15 14:53N 29°46' W 014°35'0 1.2
2017-Aug-15 14:30N 29°46' W 014°36'1 1.2
2017-Aug-15 14:00N 29°45' W 014°36'0 0.2
2017-Aug-15 13:30N 29°45' W 014°36'0 0.0
2017-Aug-15 12:59N 29°45' W 014°36'0 0.0
2017-Aug-15 12:30N 29°45' W 014°36'0 0.0
2017-Aug-15 12:00N 29°45' W 014°36'0 0.0
2017-Aug-15 11:17N 29°45' W 014°36'0 0.0
2017-Aug-15 10:50N 29°45' W 014°36'0 0.0
2017-Aug-15 10:14N 29°45' W 014°36'0 0.1
2017-Aug-15 10:00N 29°45' W 014°36'0 0.0
2017-Aug-15 09:27N 29°45' W 014°36'0 0.0
2017-Aug-15 08:57N 29°45' W 014°36'0 0.0
2017-Aug-15 08:14N 29°45' W 014°36'0 0.0
2017-Aug-15 08:00N 29°45' W 014°36'0 0.0
2017-Aug-15 07:30N 29°45' W 014°36'0 0.0
2017-Aug-15 06:56N 29°45' W 014°36'0 0.0
2017-Aug-15 06:30N 29°45' W 014°36'0 0.0
2017-Aug-15 05:58N 29°45' W 014°36'0 0.0
2017-Aug-15 05:27N 29°45' W 014°36'0 0.4
2017-Aug-15 05:00N 29°45' W 014°36'1 1.4
2017-Aug-15 04:30N 29°45' W 014°36'2 3.0
2017-Aug-15 04:00N 29°47' W 014°35'1 2.9
2017-Aug-15 03:30N 29°48' W 014°35'2 3.1
2017-Aug-15 02:44N 29°51' W 014°34'1 3.1
2017-Aug-15 02:27N 29°51' W 014°34'6 3.1
2017-Aug-15 00:23N 29°58' W 014°32'5 3.1
2017-Aug-14 22:56N 30°02' W 014°31'2 5.1
2017-Aug-14 22:30N 30°04' W 014°30'3 5.2
2017-Aug-14 22:00N 30°07' W 014°29'8 5.2
2017-Aug-14 20:23N 30°14' W 014°25'2 5.3
2017-Aug-14 20:00N 30°16' W 014°25'5 5.3
2017-Aug-14 19:07N 30°21' W 014°22'0 1.3
2017-Aug-14 19:00N 30°21' W 014°22'3 5.3
2017-Aug-14 18:29N 30°23' W 014°21'6 5.1
2017-Aug-14 17:18N 30°29' W 014°19'10 4.7
2017-Aug-14 15:08N 30°39' W 014°16'0 1.4
2017-Aug-14 14:58N 30°39' W 014°15'1 1.7
2017-Aug-14 14:29N 30°40' W 014°15'0 0.1
2017-Aug-14 14:00N 30°40' W 014°15'0 0.0
2017-Aug-14 13:30N 30°40' W 014°15'0 0.0
2017-Aug-14 12:55N 30°40' W 014°15'0 0.0
2017-Aug-14 12:15N 30°40' W 014°15'0 0.0
2017-Aug-14 12:00N 30°40' W 014°15'0 0.0
2017-Aug-14 11:19N 30°40' W 014°15'0 0.0
2017-Aug-14 11:00N 30°40' W 014°15'0 0.0
2017-Aug-14 10:12N 30°40' W 014°15'0 0.1
2017-Aug-14 10:00N 30°40' W 014°15'0 0.0
2017-Aug-14 09:30N 30°40' W 014°15'0 0.0
2017-Aug-14 09:00N 30°40' W 014°15'0 0.0
2017-Aug-14 08:30N 30°40' W 014°15'0 0.0
2017-Aug-14 07:55N 30°40' W 014°15'0 0.0
2017-Aug-14 07:26N 30°40' W 014°15'0 0.0
2017-Aug-14 07:00N 30°40' W 014°15'0 0.0
2017-Aug-14 06:24N 30°40' W 014°15'0 0.0
2017-Aug-14 06:00N 30°40' W 014°15'0 0.0
2017-Aug-14 05:30N 30°40' W 014°15'0 0.2
2017-Aug-14 05:00N 30°40' W 014°15'7 8.0
2017-Aug-14 04:10N 30°45' W 014°11'1 9.2
2017-Aug-14 04:00N 30°47' W 014°10'5 9.1
2017-Aug-14 03:30N 30°51' W 014°08'8 9.2
2017-Aug-14 02:41N 30°57' W 014°03'2 9.3
2017-Aug-14 02:30N 30°58' W 014°02'10 9.4
2017-Aug-14 01:25N 31°07' W 013°55'4 9.4
2017-Aug-14 01:00N 31°10' W 013°53'5 9.5
2017-Aug-14 00:30N 31°14' W 013°50'5 9.5
2017-Aug-14 00:00N 31°18' W 013°47'5 9.7
2017-Aug-13 23:29N 31°22' W 013°43'14 9.7
2017-Aug-13 22:04N 31°33' W 013°35'1 9.7
2017-Aug-13 22:00N 31°34' W 013°34'6 9.9
2017-Aug-13 21:25N 31°39' W 013°31'5 9.6
2017-Aug-13 20:54N 31°43' W 013°27'4 9.8
2017-Aug-13 20:30N 31°46' W 013°25'6 9.7
2017-Aug-13 19:54N 31°51' W 013°21'4 9.8
2017-Aug-13 19:28N 31°55' W 013°18'7 9.8
2017-Aug-13 18:43N 32°01' W 013°14'2 9.6
2017-Aug-13 18:30N 32°03' W 013°12'5 9.5
2017-Aug-13 17:59N 32°07' W 013°09'5 9.5
2017-Aug-13 17:28N 32°11' W 013°06'4 9.1
2017-Aug-13 17:00N 32°14' W 013°03'0 0.2
2017-Aug-13 16:30N 32°14' W 013°03'0 0.0
2017-Aug-13 15:35N 32°14' W 013°03'0 0.0
2017-Aug-13 15:29N 32°14' W 013°03'0 0.0
2017-Aug-13 14:52N 32°14' W 013°03'0 0.0
2017-Aug-13 14:26N 32°14' W 013°03'0 0.0
2017-Aug-13 13:56N 32°14' W 013°03'0 0.0
2017-Aug-13 13:25N 32°14' W 013°03'0 0.0
2017-Aug-13 12:19N 32°14' W 013°03'0 0.0
2017-Aug-13 12:00N 32°14' W 013°03'0 0.0
2017-Aug-13 11:30N 32°14' W 013°03'0 0.0
2017-Aug-13 11:00N 32°14' W 013°03'0 0.0
2017-Aug-13 10:30N 32°14' W 013°03'0 0.0
2017-Aug-13 09:59N 32°14' W 013°03'0 0.0
2017-Aug-13 09:30N 32°14' W 013°03'0 0.0
2017-Aug-13 09:00N 32°14' W 013°03'0 0.0
2017-Aug-13 08:30N 32°14' W 013°03'0 0.0
2017-Aug-13 08:00N 32°14' W 013°03'0 0.0
2017-Aug-13 07:30N 32°14' W 013°03'0 0.0
2017-Aug-13 07:00N 32°14' W 013°03'0 0.0
2017-Aug-13 06:28N 32°14' W 013°03'0 0.0
2017-Aug-13 05:48N 32°14' W 013°03'0 0.0
2017-Aug-13 05:29N 32°14' W 013°03'23 7.6
2017-Aug-13 02:24N 32°32' W 013°22'410.2
2017-Aug-13 02:00N 32°35' W 013°25'1110.1
2017-Aug-13 00:53N 32°43' W 013°33'1110.3
2017-Aug-12 23:48N 32°52' W 013°42'610.3
2017-Aug-12 23:15N 32°56' W 013°46'310.2
2017-Aug-12 23:00N 32°58' W 013°48'510.3
2017-Aug-12 22:30N 33°02' W 013°52'2010.3
2017-Aug-12 20:33N 33°19' W 014°06'110.6
2017-Aug-12 20:30N 33°19' W 014°07'710.4
2017-Aug-12 19:48N 33°25' W 014°12'610.3
2017-Aug-12 19:11N 33°30' W 014°16'210.1
2017-Aug-12 19:00N 33°32' W 014°17'6 9.6
2017-Aug-12 18:23N 33°37' W 014°21'3 7.3
2017-Aug-12 17:55N 33°39' W 014°24'0 0.1
2017-Aug-12 17:30N 33°39' W 014°24'0 0.0
2017-Aug-12 17:00N 33°39' W 014°24'0 0.0
2017-Aug-12 16:30N 33°39' W 014°24'3 5.8
2017-Aug-12 16:00N 33°37' W 014°25'3 5.4
2017-Aug-12 15:30N 33°35' W 014°27'0 0.0
2017-Aug-12 15:00N 33°35' W 014°27'0 0.0
2017-Aug-12 13:49N 33°35' W 014°27'0 0.0
2017-Aug-12 13:30N 33°35' W 014°27'0 0.0
2017-Aug-12 12:59N 33°35' W 014°27'0 0.0
2017-Aug-12 12:30N 33°35' W 014°27'0 0.0
2017-Aug-12 11:59N 33°35' W 014°27'0 0.0
2017-Aug-12 10:38N 33°34' W 014°27'0 0.1
2017-Aug-12 10:28N 33°34' W 014°27'0 0.0
2017-Aug-12 10:00N 33°34' W 014°27'0 0.0
2017-Aug-12 09:30N 33°35' W 014°27'0 0.0
2017-Aug-12 09:00N 33°35' W 014°27'2 2.7
2017-Aug-12 08:25N 33°36' W 014°28'1 1.6
2017-Aug-12 08:00N 33°35' W 014°27'1 1.4
2017-Aug-12 07:24N 33°35' W 014°27'0 0.1
2017-Aug-12 05:51N 33°34' W 014°27'2 1.3
2017-Aug-12 04:37N 33°36' W 014°28'1 5.6
2017-Aug-12 04:30N 33°37' W 014°28'3 5.7
2017-Aug-12 03:58N 33°40' W 014°27'3 5.6
2017-Aug-12 03:21N 33°43' W 014°27'2 5.4
2017-Aug-12 03:00N 33°45' W 014°27'2 4.8
2017-Aug-12 02:30N 33°47' W 014°27'6 4.6
2017-Aug-12 01:12N 33°53' W 014°26'3 4.9
2017-Aug-12 00:41N 33°56' W 014°26'1 4.7
2017-Aug-12 00:24N 33°57' W 014°26'2 4.9
2017-Aug-11 23:59N 33°59' W 014°26'2 5.0
2017-Aug-11 23:29N 34°02' W 014°26'2 5.0
2017-Aug-11 23:00N 34°04' W 014°25'3 5.4
2017-Aug-11 22:30N 34°07' W 014°25'3 5.6
2017-Aug-11 22:00N 34°10' W 014°24'3 5.6
2017-Aug-11 21:30N 34°12' W 014°24'3 5.7
2017-Aug-11 20:54N 34°16' W 014°24'3 5.8
2017-Aug-11 20:26N 34°18' W 014°23'3 5.8
2017-Aug-11 19:55N 34°21' W 014°23'23 5.9
2017-Aug-11 16:01N 34°44' W 014°23'0 6.9
2017-Aug-11 16:00N 34°45' W 014°23'1 1.6
2017-Aug-11 15:18N 34°46' W 014°23'6 3.7
2017-Aug-11 13:34N 34°44' W 014°16'0 1.1
2017-Aug-11 13:27N 34°44' W 014°16'1 0.8
2017-Aug-11 12:27N 34°43' W 014°16'0 0.0
2017-Aug-11 11:58N 34°43' W 014°16'0 0.0
2017-Aug-11 10:54N 34°43' W 014°16'0 0.0
2017-Aug-11 10:28N 34°43' W 014°16'0 0.0
2017-Aug-11 10:00N 34°43' W 014°16'0 0.0
2017-Aug-11 09:30N 34°43' W 014°16'0 0.0
2017-Aug-11 08:59N 34°43' W 014°16'0 0.0
2017-Aug-11 08:26N 34°43' W 014°16'0 0.0
2017-Aug-11 07:51N 34°43' W 014°16'0 0.0
2017-Aug-11 05:29N 34°43' W 014°16'0 0.0
2017-Aug-11 04:54N 34°43' W 014°16'2 3.8
2017-Aug-11 04:30N 34°45' W 014°16'12 4.7
2017-Aug-11 01:52N 34°57' W 014°16'2 4.1
2017-Aug-11 01:28N 34°59' W 014°16'2 4.2
2017-Aug-11 01:00N 35°01' W 014°15'4 4.2
2017-Aug-11 00:10N 35°04' W 014°15'1 4.3
2017-Aug-11 00:00N 35°05' W 014°15'4 4.3
2017-Aug-10 23:01N 35°09' W 014°14'0 4.7
2017-Aug-10 23:00N 35°09' W 014°14'3 5.9
2017-Aug-10 22:30N 35°12' W 014°13'  

Dump ship's entire track history